Clarkdale, Georgia
Current Conditions -  °F | °C
As of 10:53 PM on Tuesday 27 Jan 2015 (Local Time) from KFTY Reporting Station
Clear Clear  
Wind Chill: 31°   Ceiling: Unl
Heat Index: 37°   Visibility: 10mi
Dew Point: 28°   Wind: 8mph
Humidity: 70%   Direction: 340°NNW
Pressure: 30.1"   Gusts: NA
Location:  33.83°N, 84.65°W
Report Text: KFTY 280353Z 34007KT 10SM CLR 03/M02 A3010 RMK AO2 SLP195 T00281022
Loading
Personal Weather Stations






























Interactive Weather Map New forecast layout! Learn more

10-Day Weather Forecast

Advertisements
Track Severe Weather on mobile